Aeroporto :
LOGIN :

Iscrizione | Disclaimer

   EN    FR    IT 

 










Sommario :    VFR   VFR Marginale   IFR   IFR Intensivo   IFR Molto Intensivo
Visibilità : 
Base nubi : 
>= 8 km
>= 3000ft
5 / 8 km
1000 / 3000 ft
1500m / 5 km
500 / 1000 ft
800 / 1500m
200 / 500 ft
< 800m
< 200 ft
Simboli :   Temporali  Nebbia  Neve Forte  Precipitazioni Forti  Vento > 20 kt
SIGMETs :   Varie  Temporali  Ghiacco  Turbolenza  Onda orograficha  Ceneri Vulcaniche







- Altitudine del aeroporto : 137 ft


LIPS - Istrana AFB Treviso

ULTIMO METAR :
  • 201855Z 07006KT 9999 FEW020 24/22 Q1010 RMK FEW VIS MIN 9999 WIND THR26 00000KT WIND THR08 05006KT BLU

METARs OBSOLETI :
  • 201755Z 06005KT 9999 FEW030CB 25/23 Q1010 RMK SCT SCT200 VIS MIN 9999 WIND THR26 00000KT WIND THR08 04006KT BLU
  • 201655Z 15007KT 9999 SCT030TCU 26/23 Q1010 RETS RMK SCT VIS MIN 9999 WIND THR26 00000KT WIND THR08 00000KT BLU

TAF TAF LIPS
Valido dal 20 a 18 ore il 21 a 03 ore UTC


201700Z 2018/2103 10005KT 9999 SCT030
TEMPO 2018/2021 5000 SHRA FEW020CB BKN025
Nessun NOTAM noto per questo aeroporto.



MetMap, La meteo Aeronautica in un colpo d'occhio ! - Copyright ORBIFLY Dicembre 2007 - Disclaimer

ORBIFLY MET'MAP TEAM :

Programmazione e sviluppo : Alexandra Zaïnal
Concezione e sviluppo : Baudouin d'Aumeries
Co-Programmazione e sviluppo : Marc-Olivier Méhu
Supporto tecnico e logistico : Manuel Goepfert
Aiuto per la traduzione : Arnaldo La Scala

Contatto : metmap@orbifly.com




FONTI E CREDITI :

   NOAA